Time;durP1;ratioP1;P1;durP2;ratioP2;P2;SDS_P1;SDS_P2;PMS_P1;PMS_P2;Temp;Humidity;BMP_temperature;BMP_pressure;BME280_temperature;BME280_humidity;BME280_pressure;Samples;Min_cycle;Max_cycle;Signal;HPM_P1;HPM_P2
2023/06/08 00:04:05;;;;;;;3.90;2.33;;;27.10;51.70;;;;;;10455694;28;20482;-23
2023/06/08 00:09:07;;;;;;;3.42;2.35;;;27.10;51.70;;;;;;10441441;28;20041;-22
2023/06/08 00:14:10;;;;;;;4.82;1.95;;;27.10;51.80;;;;;;10446129;28;20469;-23
2023/06/08 00:19:12;;;;;;;3.60;2.28;;;27.00;51.70;;;;;;10446702;28;20088;-23
2023/06/08 00:24:14;;;;;;;3.50;2.67;;;27.00;51.80;;;;;;10448956;28;20045;-23
2023/06/08 00:29:17;;;;;;;5.97;2.47;;;26.90;51.80;;;;;;10456771;28;20041;-23
2023/06/08 00:34:19;;;;;;;5.35;2.20;;;26.90;51.80;;;;;;10449911;28;20099;-23
2023/06/08 00:39:21;;;;;;;5.18;2.63;;;26.80;51.80;;;;;;10448962;28;20053;-22
2023/06/08 00:44:24;;;;;;;3.20;1.90;;;26.80;52.00;;;;;;10450755;28;20045;-22
2023/06/08 00:49:27;;;;;;;4.45;2.08;;;26.70;52.40;;;;;;10445937;28;20463;-22
2023/06/08 00:54:30;;;;;;;3.30;2.00;;;26.70;51.90;;;;;;10454798;28;20466;-23
2023/06/08 00:59:33;;;;;;;4.78;2.17;;;26.60;51.90;;;;;;10449983;28;20053;-22
2023/06/08 01:04:36;;;;;;;4.47;2.15;;;26.60;52.10;;;;;;10440064;28;20075;-22
2023/06/08 01:09:44;;;;;;;2.95;1.85;;;26.50;52.00;;;;;;10450012;28;20060;-22
2023/06/08 01:14:55;;;;;;;3.55;1.90;;;26.50;52.10;;;;;;10443148;28;20055;-22
2023/06/08 01:20:17;;;;;;;3.83;2.20;;;26.50;52.10;;;;;;10452508;28;20515;-22
2023/06/08 01:25:22;;;;;;;5.20;2.33;;;26.40;52.10;;;;;;10445583;28;20489;-23
2023/06/08 01:30:25;;;;;;;3.38;2.03;;;26.40;52.20;;;;;;10448238;28;20052;-23
2023/06/08 01:35:27;;;;;;;4.63;2.35;;;26.30;52.10;;;;;;10443607;28;20049;-22
2023/06/08 01:40:35;;;;;;;4.05;1.92;;;26.30;52.10;;;;;;10436768;28;20668;-23
2023/06/08 01:45:43;;;;;;;3.47;1.95;;;26.30;52.20;;;;;;10456095;28;20132;-22
2023/06/08 01:50:46;;;;;;;3.17;1.98;;;26.20;52.20;;;;;;10464565;28;20442;-22
2023/06/08 01:55:51;;;;;;;3.65;1.92;;;26.20;52.20;;;;;;10472755;28;20220;-23
2023/06/08 02:00:52;;;;;;;5.57;2.20;;;26.20;52.30;;;;;;10444978;28;20140;-23
2023/06/08 02:05:54;;;;;;;4.78;2.00;;;26.10;52.30;;;;;;10447000;28;20499;-23
2023/06/08 02:10:58;;;;;;;4.50;2.28;;;26.10;52.30;;;;;;10435188;28;20055;-23
2023/06/08 02:15:59;;;;;;;2.83;1.73;;;26.00;52.20;;;;;;10447887;28;20103;-23
2023/06/08 02:21:02;;;;;;;3.70;1.92;;;26.00;52.40;;;;;;10435897;28;20122;-23
2023/06/08 02:26:06;;;;;;;4.43;2.13;;;25.90;52.50;;;;;;10448243;28;20090;-24
2023/06/08 02:31:08;;;;;;;3.08;1.90;;;25.90;52.40;;;;;;10440322;28;20060;-23
2023/06/08 02:36:10;;;;;;;4.05;1.60;;;25.90;52.40;;;;;;10434971;28;20141;-23
2023/06/08 02:41:13;;;;;;;3.65;2.05;;;25.90;52.50;;;;;;10445684;28;20069;-23
2023/06/08 02:46:15;;;;;;;3.53;1.90;;;25.90;52.50;;;;;;10435519;28;20433;-23
2023/06/08 02:51:19;;;;;;;3.90;2.20;;;25.90;52.50;;;;;;10438536;28;20508;-23
2023/06/08 02:56:24;;;;;;;6.40;2.10;;;25.70;52.50;;;;;;10436601;28;20053;-23
2023/06/08 03:15:30;;;;;;;5.18;2.00;;;25.70;52.10;;;;;;10509453;27;20564;-23
2023/06/08 03:20:32;;;;;;;4.05;2.03;;;25.60;52.60;;;;;;10486606;28;20037;-22
2023/06/08 03:25:36;;;;;;;5.40;2.42;;;25.50;52.60;;;;;;10485279;28;20076;-23
2023/06/08 03:30:39;;;;;;;6.18;2.65;;;25.50;52.70;;;;;;10492034;28;20049;-24
2023/06/08 03:35:41;;;;;;;6.28;2.00;;;25.50;52.70;;;;;;10486892;28;20041;-24
2023/06/08 03:40:43;;;;;;;4.90;1.95;;;25.50;52.60;;;;;;10484523;28;20513;-24
2023/06/08 03:45:46;;;;;;;2.38;1.70;;;25.50;52.70;;;;;;10484077;28;20045;-24
2023/06/08 03:50:48;;;;;;;4.03;1.83;;;25.50;52.70;;;;;;10480773;28;20157;-25
2023/06/08 03:55:50;;;;;;;3.58;1.73;;;25.40;52.70;;;;;;10491861;28;20082;-24
2023/06/08 04:00:56;;;;;;;2.78;1.98;;;25.40;52.70;;;;;;10486437;28;20099;-24
2023/06/08 04:05:58;;;;;;;3.25;2.13;;;25.40;52.80;;;;;;10483184;28;20041;-24
2023/06/08 04:11:00;;;;;;;3.08;1.95;;;25.40;52.80;;;;;;10484612;28;20076;-24
2023/06/08 04:16:08;;;;;;;5.15;1.90;;;25.30;52.70;;;;;;10485450;28;20048;-25
2023/06/08 04:21:10;;;;;;;2.97;2.20;;;25.30;52.80;;;;;;10491046;28;20059;-25
2023/06/08 04:26:12;;;;;;;5.25;2.00;;;25.30;52.80;;;;;;10457831;28;20053;-25
2023/06/08 04:31:15;;;;;;;3.03;1.90;;;25.30;52.70;;;;;;10463524;28;20105;-24
2023/06/08 04:36:17;;;;;;;3.90;2.25;;;25.30;52.70;;;;;;10461451;28;20098;-24
2023/06/08 04:41:19;;;;;;;2.80;1.90;;;25.30;52.70;;;;;;10454747;28;20084;-24
2023/06/08 04:46:25;;;;;;;2.45;1.90;;;25.30;52.60;;;;;;10451927;28;20045;-24
2023/06/08 04:51:29;;;;;;;9.13;2.17;;;25.30;52.60;;;;;;10460798;28;20048;-24
2023/06/08 04:56:33;;;;;;;4.20;2.10;;;25.30;52.60;;;;;;10454572;28;20041;-25
2023/06/08 05:01:36;;;;;;;3.10;2.00;;;25.40;52.60;;;;;;10455447;28;20120;-24
2023/06/08 05:06:39;;;;;;;4.43;2.15;;;25.30;52.50;;;;;;10458624;28;20111;-24
2023/06/08 05:11:40;;;;;;;4.00;1.95;;;25.30;52.40;;;;;;10453221;28;20049;-23
2023/06/08 05:16:44;;;;;;;5.45;2.30;;;25.30;52.40;;;;;;10452323;28;20501;-24
2023/06/08 05:21:46;;;;;;;8.00;2.00;;;25.30;52.40;;;;;;10453292;28;20045;-22
2023/06/08 05:26:48;;;;;;;2.85;1.98;;;25.20;52.50;;;;;;10451002;28;20048;-24
2023/06/08 05:31:51;;;;;;;3.25;2.03;;;25.30;52.50;;;;;;10450733;28;20049;-22
2023/06/08 05:36:53;;;;;;;4.85;2.00;;;25.20;52.50;;;;;;10442647;28;20049;-23
2023/06/08 05:41:55;;;;;;;5.07;1.70;;;25.20;52.60;;;;;;10453397;28;20524;-22
2023/06/08 05:46:58;;;;;;;3.25;1.63;;;25.20;52.30;;;;;;10442350;28;20470;-23
2023/06/08 05:52:00;;;;;;;5.93;2.65;;;25.30;52.50;;;;;;10447972;28;20080;-23
2023/06/08 05:57:02;;;;;;;5.40;1.83;;;25.30;52.50;;;;;;10458685;28;20045;-23
2023/06/08 06:02:06;;;;;;;7.57;2.50;;;25.30;52.50;;;;;;10452416;28;20090;-24
2023/06/08 06:07:08;;;;;;;6.80;2.80;;;25.30;52.40;;;;;;10458967;28;20123;-22
2023/06/08 06:12:10;;;;;;;8.20;2.88;;;25.30;52.20;;;;;;10449500;28;20193;-23
2023/06/08 06:17:15;;;;;;;6.05;2.47;;;25.40;52.20;;;;;;10448782;28;20118;-22
2023/06/08 06:22:18;;;;;;;4.97;2.78;;;25.40;52.80;;;;;;10447180;28;20056;-23
2023/06/08 06:27:20;;;;;;;7.65;2.50;;;25.40;52.20;;;;;;10452056;28;20133;-23
2023/06/08 06:32:23;;;;;;;5.72;2.38;;;25.40;52.10;;;;;;10449105;28;20131;-22
2023/06/08 06:37:27;;;;;;;7.05;2.92;;;25.40;52.00;;;;;;10444314;28;20051;-23
2023/06/08 06:42:29;;;;;;;21.10;3.72;;;25.40;52.10;;;;;;10444897;28;20048;-25
2023/06/08 06:47:32;;;;;;;7.85;3.15;;;25.70;52.90;;;;;;10445013;28;20576;-25
2023/06/08 06:52:34;;;;;;;5.40;2.55;;;25.70;52.00;;;;;;10440662;28;20048;-24
2023/06/08 06:57:37;;;;;;;4.78;2.55;;;25.50;51.90;;;;;;10447884;28;20132;-25
2023/06/08 07:02:40;;;;;;;4.95;2.63;;;25.60;51.80;;;;;;10446027;28;20074;-25
2023/06/08 07:07:42;;;;;;;6.63;2.92;;;25.60;51.70;;;;;;10451927;28;20053;-25
2023/06/08 07:12:44;;;;;;;6.88;2.78;;;25.60;51.50;;;;;;10442685;28;20053;-25
2023/06/08 07:17:47;;;;;;;6.65;3.08;;;25.70;51.40;;;;;;10449568;28;20056;-25
2023/06/08 07:22:49;;;;;;;14.93;4.65;;;25.70;51.40;;;;;;10454658;28;20076;-25
2023/06/08 07:27:51;;;;;;;20.65;5.85;;;25.80;51.20;;;;;;10447074;28;20470;-24
2023/06/08 07:32:54;;;;;;;12.15;4.43;;;25.80;51.20;;;;;;10446779;28;20136;-24
2023/06/08 07:37:56;;;;;;;9.95;4.05;;;25.80;51.10;;;;;;10457464;28;20069;-26
2023/06/08 07:42:58;;;;;;;11.73;4.78;;;25.90;51.00;;;;;;10446735;28;20110;-25
2023/06/08 07:48:01;;;;;;;7.03;3.70;;;25.90;50.80;;;;;;10444702;28;20488;-25
2023/06/08 07:53:03;;;;;;;12.13;5.28;;;25.90;50.90;;;;;;10444427;28;20052;-25
2023/06/08 07:58:05;;;;;;;24.45;7.70;;;25.90;51.00;;;;;;10457730;28;20132;-25
2023/06/08 08:03:08;;;;;;;17.85;5.47;;;26.00;51.00;;;;;;10469516;28;20045;-25
2023/06/08 08:08:10;;;;;;;10.40;5.10;;;25.90;51.40;;;;;;10453012;28;20044;-24
2023/06/08 08:13:12;;;;;;;10.45;4.13;;;26.00;51.10;;;;;;10457148;28;20418;-25
2023/06/08 08:18:15;;;;;;;8.98;3.97;;;26.10;51.00;;;;;;10439159;28;20140;-25
2023/06/08 08:23:17;;;;;;;7.50;3.53;;;26.10;51.00;;;;;;10450874;28;20123;-25
2023/06/08 08:28:19;;;;;;;9.23;3.28;;;26.10;50.90;;;;;;10454399;28;20052;-25
2023/06/08 08:33:24;;;;;;;11.55;3.97;;;26.30;51.40;;;;;;10452432;28;20120;-25
2023/06/08 08:38:27;;;;;;;7.63;2.78;;;25.50;52.50;;;;;;10451635;28;20049;-26
2023/06/08 08:43:35;;;;;;;8.45;2.97;;;25.80;51.50;;;;;;10452785;28;20053;-26
2023/06/08 08:48:43;;;;;;;10.02;4.32;;;25.30;52.20;;;;;;10460166;28;20081;-26
2023/06/08 08:53:47;;;;;;;10.18;4.68;;;25.20;51.90;;;;;;10451083;28;20053;-26
2023/06/08 08:58:50;;;;;;;7.75;3.47;;;25.30;52.50;;;;;;10452540;28;20045;-25
2023/06/08 09:03:53;;;;;;;8.18;3.72;;;25.80;52.20;;;;;;10461214;28;20508;-25
2023/06/08 09:08:55;;;;;;;6.82;3.67;;;25.90;52.30;;;;;;10448918;28;20131;-25
2023/06/08 09:14:08;;;;;;;9.45;3.75;;;26.10;51.70;;;;;;10450515;28;20172;-26
2023/06/08 09:19:12;;;;;;;11.25;3.50;;;25.70;52.30;;;;;;10451321;28;20048;-26
2023/06/08 09:24:16;;;;;;;10.20;4.00;;;25.50;53.10;;;;;;10450010;28;20076;-26
2023/06/08 09:29:32;;;;;;;9.93;4.60;;;24.90;54.10;;;;;;10460162;28;20124;-26
2023/06/08 09:34:49;;;;;;;17.55;8.02;;;26.20;52.50;;;;;;10450834;28;20049;-25
2023/06/08 09:39:50;;;;;;;21.23;7.32;;;26.40;51.30;;;;;;10450929;28;20102;-27
2023/06/08 09:45:08;;;;;;;18.00;7.38;;;26.40;51.20;;;;;;10447584;28;20457;-25
2023/06/08 09:50:12;;;;;;;16.25;5.82;;;26.70;51.30;;;;;;10439971;28;20099;-23
2023/06/08 09:55:17;;;;;;;11.63;4.70;;;26.60;51.30;;;;;;10449046;28;20061;-25
2023/06/08 10:00:23;;;;;;;9.52;4.00;;;26.90;51.00;;;;;;10444081;28;20077;-23
2023/06/08 10:05:30;;;;;;;9.13;4.07;;;26.60;51.20;;;;;;10448626;28;20106;-28
2023/06/08 10:10:36;;;;;;;9.57;3.95;;;26.80;51.10;;;;;;10450304;28;20095;-25
2023/06/08 10:15:39;;;;;;;7.15;3.10;;;27.00;50.90;;;;;;10440188;28;20582;-30
2023/06/08 10:20:42;;;;;;;8.35;3.00;;;27.00;51.40;;;;;;10451796;28;20041;-25
2023/06/08 10:25:45;;;;;;;5.90;3.17;;;27.00;50.90;;;;;;10451542;28;20122;-25
2023/06/08 10:30:48;;;;;;;13.48;4.20;;;26.70;51.20;;;;;;10455651;28;20045;-25
2023/06/08 10:36:08;;;;;;;6.43;3.00;;;26.40;51.70;;;;;;10433809;28;20135;-24
2023/06/08 10:41:09;;;;;;;12.75;4.88;;;26.40;52.00;;;;;;10447409;28;20127;-25
2023/06/08 10:46:13;;;;;;;6.78;3.10;;;25.60;53.10;;;;;;10442197;28;20134;-25
2023/06/08 10:51:23;;;;;;;9.02;3.30;;;26.40;52.10;;;;;;10447998;28;20131;-26
2023/06/08 10:56:27;;;;;;;7.22;3.17;;;26.90;51.60;;;;;;10446804;28;20486;-25
2023/06/08 11:01:30;;;;;;;5.25;2.67;;;27.10;51.00;;;;;;10450917;28;20053;-25
2023/06/08 11:06:35;;;;;;;4.25;2.67;;;27.60;50.30;;;;;;10451862;28;20126;-23
2023/06/08 11:11:37;;;;;;;5.97;2.58;;;27.40;50.70;;;;;;10446755;28;20134;-24
2023/06/08 11:16:39;;;;;;;5.32;3.35;;;27.60;50.60;;;;;;10450284;28;20455;-25
2023/06/08 11:21:42;;;;;;;5.95;3.00;;;27.60;50.40;;;;;;10452913;28;20551;-25
2023/06/08 11:26:45;;;;;;;5.90;2.80;;;27.50;50.10;;;;;;10460148;28;20041;-25
2023/06/08 11:31:47;;;;;;;8.77;2.88;;;27.70;50.50;;;;;;10444650;28;21629;-25
2023/06/08 11:36:50;;;;;;;3.65;2.28;;;28.00;49.30;;;;;;10454906;28;20052;-25
2023/06/08 11:41:54;;;;;;;6.57;2.60;;;28.30;49.00;;;;;;10455958;28;20049;-29
2023/06/08 11:46:56;;;;;;;3.30;2.33;;;28.20;49.80;;;;;;10457852;28;20116;-25
2023/06/08 11:51:59;;;;;;;3.70;2.22;;;28.10;50.00;;;;;;10455061;28;20059;-25
2023/06/08 11:57:05;;;;;;;6.32;2.83;;;28.50;49.10;;;;;;10459937;28;20072;-25
2023/06/08 12:02:09;;;;;;;3.55;2.40;;;28.40;49.50;;;;;;10459684;28;20202;-25
2023/06/08 12:07:13;;;;;;;13.73;4.22;;;28.30;49.90;;;;;;10455186;28;20091;-24
2023/06/08 12:12:15;;;;;;;15.40;3.88;;;26.30;53.80;;;;;;10454137;28;20103;-25
2023/06/08 12:17:16;;;;;;;4.72;2.80;;;27.10;52.10;;;;;;10460818;28;20134;-26
2023/06/08 12:22:20;;;;;;;12.13;4.18;;;28.10;50.40;;;;;;10458304;28;20129;-26
2023/06/08 12:27:24;;;;;;;12.85;4.30;;;28.30;50.40;;;;;;10455529;28;20054;-25
2023/06/08 12:32:26;;;;;;;5.97;3.30;;;27.80;50.40;;;;;;10458549;28;20048;-25
2023/06/08 12:37:29;;;;;;;6.07;3.28;;;28.30;50.50;;;;;;10457342;28;20135;-25
2023/06/08 12:42:31;;;;;;;8.65;2.67;;;28.10;51.10;;;;;;10459501;28;20045;-23
2023/06/08 12:47:33;;;;;;;7.25;3.50;;;27.60;52.20;;;;;;10456378;28;20496;-25
2023/06/08 12:52:37;;;;;;;7.32;2.53;;;28.20;51.00;;;;;;10448072;28;20139;-26
2023/06/08 12:57:39;;;;;;;6.13;3.03;;;28.20;51.30;;;;;;10454018;28;20049;-25
2023/06/08 13:02:41;;;;;;;11.68;3.53;;;28.40;50.70;;;;;;10452578;28;20132;-25
2023/06/08 13:07:44;;;;;;;7.82;2.65;;;28.20;51.10;;;;;;10452365;28;20102;-25
2023/06/08 13:12:47;;;;;;;11.32;3.67;;;28.70;50.40;;;;;;10451667;28;20465;-25
2023/06/08 13:17:48;;;;;;;8.90;2.60;;;28.40;50.90;;;;;;10451328;28;20041;-24
2023/06/08 13:22:53;;;;;;;9.93;3.05;;;28.40;51.30;;;;;;10455449;28;20140;-25
2023/06/08 13:27:54;;;;;;;6.00;2.60;;;28.80;50.70;;;;;;10451051;28;20504;-26
2023/06/08 13:32:59;;;;;;;10.27;3.22;;;28.80;50.60;;;;;;10445915;28;20169;-25
2023/06/08 13:38:03;;;;;;;11.25;3.05;;;29.20;49.90;;;;;;10455893;28;20149;-25
2023/06/08 13:43:09;;;;;;;9.45;2.92;;;29.40;50.00;;;;;;10451078;28;20079;-24
2023/06/08 13:48:11;;;;;;;15.13;2.97;;;29.50;50.90;;;;;;10459087;28;20072;-25
2023/06/08 13:53:15;;;;;;;8.05;2.92;;;29.80;49.70;;;;;;10451863;28;20134;-25
2023/06/08 13:58:17;;;;;;;13.85;2.83;;;30.00;50.00;;;;;;10458811;28;20091;-25
2023/06/08 14:03:19;;;;;;;11.13;3.10;;;29.80;49.90;;;;;;10454335;28;20044;-25
2023/06/08 14:08:22;;;;;;;9.82;3.97;;;29.90;50.40;;;;;;10458190;28;20063;-24
2023/06/08 14:13:25;;;;;;;4.45;2.28;;;30.00;49.70;;;;;;10447892;28;20136;-25
2023/06/08 14:18:26;;;;;;;11.05;2.90;;;30.30;50.10;;;;;;10448911;28;20037;-25
2023/06/08 14:23:30;;;;;;;13.50;3.78;;;30.50;49.70;;;;;;10451777;28;20133;-26
2023/06/08 14:28:32;;;;;;;14.35;4.55;;;30.40;48.70;;;;;;10457665;28;20040;-23
2023/06/08 14:33:34;;;;;;;6.35;3.17;;;30.60;49.40;;;;;;10448752;28;20048;-25
2023/06/08 14:38:37;;;;;;;16.92;3.60;;;30.30;49.10;;;;;;10454735;28;20052;-25
2023/06/08 14:43:39;;;;;;;9.65;3.33;;;30.60;49.70;;;;;;10447606;28;20072;-26
2023/06/08 14:48:41;;;;;;;6.05;2.20;;;31.00;49.20;;;;;;10447834;28;20079;-25
2023/06/08 14:53:44;;;;;;;13.80;3.22;;;31.10;49.30;;;;;;10441870;28;20060;-26
2023/06/08 14:58:46;;;;;;;14.30;4.13;;;31.10;49.50;;;;;;10441449;28;20102;-26
2023/06/08 15:03:48;;;;;;;10.18;2.75;;;30.60;50.60;;;;;;10441795;28;20056;-24
2023/06/08 15:08:52;;;;;;;7.57;2.70;;;31.10;50.20;;;;;;10447780;28;20106;-25
2023/06/08 15:13:53;;;;;;;8.85;2.67;;;31.00;50.50;;;;;;10447731;28;20147;-26
2023/06/08 15:18:55;;;;;;;6.80;2.55;;;31.30;50.00;;;;;;10450707;28;20136;-25
2023/06/08 15:23:59;;;;;;;8.63;2.55;;;31.30;49.30;;;;;;10445101;28;20520;-25
2023/06/08 15:29:00;;;;;;;5.85;2.20;;;31.70;49.90;;;;;;10452525;28;20478;-23
2023/06/08 15:34:02;;;;;;;5.25;2.33;;;31.80;49.00;;;;;;10433597;28;20060;-24
2023/06/08 15:39:05;;;;;;;6.00;2.17;;;32.00;49.70;;;;;;10432717;28;20128;-25
2023/06/08 15:44:07;;;;;;;4.32;2.40;;;32.50;49.80;;;;;;10438985;28;20534;-23
2023/06/08 15:49:09;;;;;;;6.72;2.30;;;32.30;49.60;;;;;;10437841;28;20541;-26
2023/06/08 15:54:12;;;;;;;4.78;2.08;;;32.20;49.70;;;;;;10435645;28;20057;-26
2023/06/08 15:59:14;;;;;;;5.03;2.35;;;32.40;49.50;;;;;;10431817;28;20068;-25
2023/06/08 16:04:16;;;;;;;5.38;2.53;;;32.40;48.70;;;;;;10438004;28;21090;-25
2023/06/08 16:09:20;;;;;;;6.28;2.58;;;32.30;48.20;;;;;;10435657;28;20045;-23
2023/06/08 16:14:22;;;;;;;5.70;2.40;;;32.40;48.90;;;;;;10437719;28;20092;-27
2023/06/08 16:19:25;;;;;;;6.60;2.72;;;32.20;48.80;;;;;;10439020;28;20045;-27
2023/06/08 16:24:30;;;;;;;5.85;2.28;;;32.30;48.70;;;;;;10448705;28;20044;-25
2023/06/08 16:29:31;;;;;;;4.03;1.98;;;32.50;49.30;;;;;;10431252;28;20055;-25
2023/06/08 16:34:33;;;;;;;7.22;2.55;;;32.80;50.90;;;;;;10449358;28;20481;-30
2023/06/08 16:39:37;;;;;;;6.20;2.55;;;33.00;52.40;;;;;;10450388;28;20615;-23
2023/06/08 16:44:39;;;;;;;6.10;2.05;;;32.80;49.30;;;;;;10448565;28;20061;-25
2023/06/08 16:49:41;;;;;;;3.38;1.60;;;33.10;49.80;;;;;;10449696;28;20406;-24
2023/06/08 16:54:44;;;;;;;5.82;2.30;;;33.10;50.70;;;;;;10449431;28;20541;-25
2023/06/08 16:59:46;;;;;;;7.85;2.50;;;33.10;50.30;;;;;;10452295;28;20454;-24
2023/06/08 17:04:48;;;;;;;15.20;3.45;;;33.70;47.90;;;;;;10449644;28;20164;-25
2023/06/08 17:09:51;;;;;;;12.43;3.50;;;34.40;46.90;;;;;;10453522;28;20177;-25
2023/06/08 17:14:53;;;;;;;12.93;2.40;;;34.90;46.60;;;;;;10450257;28;20057;-25
2023/06/08 17:19:55;;;;;;;19.38;3.90;;;34.50;54.80;;;;;;10450734;28;20045;-25
2023/06/08 17:24:59;;;;;;;10.23;2.53;;;34.90;60.50;;;;;;10441672;28;20127;-24
2023/06/08 17:30:01;;;;;;;6.80;2.60;;;34.50;53.20;;;;;;10451355;28;20130;-26
2023/06/08 17:35:03;;;;;;;12.82;2.63;;;33.90;53.30;;;;;;10448205;28;20217;-25
2023/06/08 17:40:08;;;;;;;7.40;2.67;;;33.90;51.80;;;;;;10444879;28;20211;-26
2023/06/08 17:45:10;;;;;;;10.93;3.92;;;33.70;51.50;;;;;;10447631;28;20072;-25
2023/06/08 17:50:12;;;;;;;11.48;4.40;;;33.70;53.10;;;;;;10448194;28;20079;-24
2023/06/08 17:55:15;;;;;;;12.55;4.88;;;33.80;52.40;;;;;;10455737;28;20524;-26
2023/06/08 18:00:18;;;;;;;8.50;3.72;;;33.80;50.70;;;;;;10446899;28;20132;-24
2023/06/08 18:05:21;;;;;;;10.75;3.50;;;33.70;50.60;;;;;;10450988;28;20131;-25
2023/06/08 18:10:24;;;;;;;10.68;3.55;;;33.60;50.90;;;;;;10440887;28;20057;-24
2023/06/08 18:15:26;;;;;;;6.88;3.20;;;33.60;50.20;;;;;;10446758;28;20048;-24
2023/06/08 18:20:28;;;;;;;6.40;2.97;;;33.50;50.40;;;;;;10447640;28;20037;-25
2023/06/08 18:25:31;;;;;;;8.70;3.40;;;33.50;50.30;;;;;;10446125;28;20075;-25
2023/06/08 18:30:33;;;;;;;6.03;3.05;;;33.60;50.80;;;;;;10447908;28;21040;-25
2023/06/08 18:35:35;;;;;;;7.20;2.63;;;33.60;50.80;;;;;;10445611;28;20059;-25
2023/06/08 18:40:38;;;;;;;7.85;2.33;;;33.40;50.20;;;;;;10445821;28;20052;-24
2023/06/08 18:45:41;;;;;;;9.00;2.88;;;33.30;50.10;;;;;;10443168;28;20099;-24
2023/06/08 18:50:43;;;;;;;4.00;2.05;;;33.30;50.10;;;;;;10445766;28;20049;-24
2023/06/08 18:55:46;;;;;;;8.43;2.50;;;33.30;49.90;;;;;;10447004;28;20132;-24
2023/06/08 19:00:48;;;;;;;5.25;2.22;;;33.20;50.00;;;;;;10445345;28;20505;-24
2023/06/08 19:05:49;;;;;;;6.78;2.92;;;33.20;50.50;;;;;;10445789;28;20087;-25
2023/06/08 19:10:53;;;;;;;3.80;2.13;;;33.10;50.10;;;;;;10445249;28;20045;-25
2023/06/08 19:15:54;;;;;;;4.45;2.33;;;33.10;52.40;;;;;;10441372;28;20465;-25
2023/06/08 19:20:56;;;;;;;4.43;2.20;;;33.00;50.80;;;;;;10445015;28;20617;-26
2023/06/08 19:26:00;;;;;;;3.10;1.95;;;32.90;50.60;;;;;;10444732;28;20555;-25
2023/06/08 19:31:01;;;;;;;4.55;1.90;;;32.80;50.70;;;;;;10451501;28;20352;-25
2023/06/08 19:36:04;;;;;;;3.40;1.83;;;32.70;50.80;;;;;;10442603;28;20053;-25
2023/06/08 19:41:07;;;;;;;4.63;1.90;;;32.70;51.10;;;;;;10445370;28;20445;-24
2023/06/08 19:46:09;;;;;;;4.40;1.58;;;32.80;51.00;;;;;;10444762;28;20476;-24
2023/06/08 19:51:10;;;;;;;4.57;2.10;;;32.60;51.00;;;;;;10443500;28;20049;-24
2023/06/08 19:56:16;;;;;;;3.67;1.98;;;32.50;51.00;;;;;;10458847;28;20568;-24
2023/06/08 20:01:18;;;;;;;4.43;1.88;;;32.40;50.90;;;;;;10450521;28;20414;-24
2023/06/08 20:06:20;;;;;;;2.85;1.80;;;32.30;51.40;;;;;;10454318;28;20087;-24
2023/06/08 20:11:23;;;;;;;4.68;2.13;;;32.20;50.70;;;;;;10452039;28;20678;-24
2023/06/08 20:16:25;;;;;;;7.15;2.10;;;32.10;50.80;;;;;;10454285;28;20178;-25
2023/06/08 20:21:27;;;;;;;4.10;2.10;;;32.00;50.80;;;;;;10456434;28;20041;-24
2023/06/08 20:26:30;;;;;;;3.50;1.80;;;32.00;50.90;;;;;;10452892;28;20138;-26
2023/06/08 20:31:37;;;;;;;3.30;2.03;;;31.90;50.80;;;;;;10454429;28;20037;-25
2023/06/08 20:36:39;;;;;;;3.13;1.85;;;31.90;50.90;;;;;;10448251;28;20497;-25
2023/06/08 20:41:43;;;;;;;2.63;1.45;;;31.70;50.90;;;;;;10451408;28;20128;-25
2023/06/08 20:46:46;;;;;;;4.25;2.58;;;31.70;51.00;;;;;;10441970;28;20136;-26
2023/06/08 20:51:47;;;;;;;2.70;1.77;;;31.60;51.00;;;;;;10447893;28;20057;-24
2023/06/08 20:56:51;;;;;;;4.57;1.95;;;31.50;51.00;;;;;;10456435;28;20067;-24
2023/06/08 21:01:53;;;;;;;4.85;2.05;;;31.40;50.80;;;;;;10460272;28;20071;-27
2023/06/08 21:06:54;;;;;;;2.35;1.73;;;31.30;50.80;;;;;;10449555;28;20072;-25
2023/06/08 21:11:58;;;;;;;2.55;1.90;;;31.20;50.80;;;;;;10451949;28;20147;-25
2023/06/08 21:17:00;;;;;;;3.47;2.03;;;31.20;50.70;;;;;;10449959;28;20049;-34
2023/06/08 21:22:02;;;;;;;5.07;2.13;;;31.10;50.80;;;;;;10454481;28;20095;-30
2023/06/08 21:27:06;;;;;;;5.10;2.03;;;31.10;50.80;;;;;;10446836;28;20076;-26
2023/06/08 21:32:09;;;;;;;4.72;2.20;;;31.00;50.80;;;;;;10452841;28;20547;-26
2023/06/08 21:37:11;;;;;;;2.13;1.80;;;30.90;50.70;;;;;;10451742;28;20056;-27
2023/06/08 21:42:14;;;;;;;6.80;2.17;;;30.90;50.80;;;;;;10452788;28;20048;-26
2023/06/08 21:47:18;;;;;;;4.30;2.13;;;30.80;50.80;;;;;;10447460;28;20263;-26
2023/06/08 21:52:21;;;;;;;3.38;1.80;;;30.80;50.90;;;;;;10441487;28;20446;-25
2023/06/08 21:57:24;;;;;;;4.65;2.38;;;30.70;50.80;;;;;;10448537;28;20077;-27
2023/06/08 22:02:26;;;;;;;3.75;2.08;;;30.60;50.90;;;;;;10448151;28;20102;-26
2023/06/08 22:07:28;;;;;;;5.75;1.92;;;30.50;51.00;;;;;;10448488;28;20461;-25
2023/06/08 22:12:32;;;;;;;4.45;1.77;;;30.50;51.10;;;;;;10444176;28;20053;-23
2023/06/08 22:17:33;;;;;;;3.70;2.20;;;30.40;51.20;;;;;;10435715;28;20443;-25
2023/06/08 22:22:35;;;;;;;2.53;1.70;;;30.40;51.10;;;;;;10448023;28;20405;-29
2023/06/08 22:27:39;;;;;;;3.03;1.77;;;30.30;51.00;;;;;;10449276;28;20128;-27
2023/06/08 22:32:41;;;;;;;2.78;1.58;;;30.20;51.10;;;;;;10445955;28;20186;-26
2023/06/08 22:37:43;;;;;;;2.40;1.65;;;30.20;51.20;;;;;;10450678;28;20059;-25
2023/06/08 22:42:46;;;;;;;4.43;2.10;;;30.10;51.20;;;;;;10444274;28;20052;-25
2023/06/08 22:47:48;;;;;;;2.00;1.55;;;30.10;51.30;;;;;;10445002;28;20057;-26
2023/06/08 22:52:52;;;;;;;5.70;2.05;;;30.00;51.20;;;;;;10459005;28;20136;-26
2023/06/08 22:57:56;;;;;;;3.45;2.13;;;30.00;51.30;;;;;;10461444;28;20061;-26
2023/06/08 23:02:58;;;;;;;5.45;2.00;;;29.90;51.30;;;;;;10449610;28;20053;-26
2023/06/08 23:08:01;;;;;;;5.13;1.98;;;29.80;51.30;;;;;;10446694;28;20144;-26
2023/06/08 23:13:04;;;;;;;4.80;2.17;;;29.70;51.40;;;;;;10445288;28;20061;-25
2023/06/08 23:18:08;;;;;;;3.78;2.15;;;29.70;51.30;;;;;;10449894;28;20057;-26
2023/06/08 23:23:10;;;;;;;3.78;1.92;;;29.70;51.40;;;;;;10446005;28;20649;-26
2023/06/08 23:28:13;;;;;;;6.38;1.90;;;29.60;51.50;;;;;;10445565;28;20041;-26
2023/06/08 23:33:15;;;;;;;3.22;1.80;;;29.60;51.50;;;;;;10452069;28;20515;-26
2023/06/08 23:38:17;;;;;;;3.13;1.85;;;29.50;51.40;;;;;;10467912;28;20045;-26
2023/06/08 23:43:20;;;;;;;3.17;1.88;;;29.50;51.50;;;;;;10458504;28;20602;-26
2023/06/08 23:48:23;;;;;;;5.80;2.10;;;29.40;51.50;;;;;;10455694;28;20132;-26
2023/06/08 23:53:25;;;;;;;2.90;1.65;;;29.40;51.40;;;;;;10456574;28;20127;-25
2023/06/08 23:58:28;;;;;;;3.60;1.77;;;29.30;51.50;;;;;;10457053;28;20422;-26
